Time;durP1;ratioP1;P1;durP2;ratioP2;P2;SDS_P1;SDS_P2;PMS_P1;PMS_P2;Temp;Humidity;BMP_temperature;BMP_pressure;BME280_temperature;BME280_humidity;BME280_pressure;Samples;Min_cycle;Max_cycle;Signal;HPM_P1;HPM_P2
2023/02/27 00:00:27;;;;;;;5.97;3.27;;;0.70;99.90;;;;;;4936317;29;20227;-75
2023/02/27 00:02:54;;;;;;;3.30;2.33;;;0.70;99.90;;;;;;4936935;29;20314;-75
2023/02/27 00:05:22;;;;;;;4.10;2.00;;;0.60;99.90;;;;;;4936283;29;20203;-77
2023/02/27 00:07:49;;;;;;;4.30;2.27;;;0.70;99.90;;;;;;4936957;29;20207;-76
2023/02/27 00:10:16;;;;;;;5.43;2.10;;;0.70;99.90;;;;;;4936525;29;20249;-75
2023/02/27 00:12:44;;;;;;;4.70;1.90;;;0.80;99.90;;;;;;4936966;29;20270;-76
2023/02/27 00:15:13;;;;;;;3.93;2.10;;;0.70;99.90;;;;;;4936140;29;20708;-75
2023/02/27 00:17:41;;;;;;;3.27;2.10;;;0.80;99.90;;;;;;4936796;29;20330;-75
2023/02/27 00:20:11;;;;;;;2.93;1.97;;;0.60;99.90;;;;;;4936296;29;20639;-75
2023/02/27 00:22:39;;;;;;;3.93;2.23;;;0.60;99.90;;;;;;4937212;29;20290;-76
2023/02/27 00:25:07;;;;;;;4.47;2.33;;;0.50;99.90;;;;;;4936345;29;20294;-76
2023/02/27 00:27:34;;;;;;;4.47;1.97;;;0.60;99.90;;;;;;4936658;29;20208;-75
2023/02/27 00:30:01;;;;;;;4.30;1.97;;;0.70;99.90;;;;;;4935854;29;20664;-75
2023/02/27 00:32:28;;;;;;;4.27;2.20;;;0.50;99.90;;;;;;4936967;29;20635;-75
2023/02/27 00:34:55;;;;;;;3.67;2.10;;;0.60;99.90;;;;;;4936272;29;20207;-76
2023/02/27 00:37:22;;;;;;;4.90;2.00;;;0.50;99.90;;;;;;4935908;29;21079;-76
2023/02/27 00:39:50;;;;;;;4.47;2.30;;;0.60;99.90;;;;;;4935182;29;20307;-75
2023/02/27 00:42:17;;;;;;;3.00;1.90;;;0.60;99.90;;;;;;4936139;29;20335;-75
2023/02/27 00:44:44;;;;;;;2.73;2.10;;;0.50;99.90;;;;;;4936239;29;20770;-76
2023/02/27 00:47:11;;;;;;;2.67;2.03;;;0.50;99.90;;;;;;4935697;29;20200;-76
2023/02/27 00:49:38;;;;;;;3.97;2.00;;;0.60;99.90;;;;;;4936191;29;20298;-75
2023/02/27 00:52:05;;;;;;;3.83;2.07;;;0.60;99.90;;;;;;4936328;29;20203;-76
2023/02/27 00:54:32;;;;;;;3.47;1.80;;;0.50;99.90;;;;;;4935852;29;20287;-76
2023/02/27 00:57:00;;;;;;;5.60;2.00;;;0.50;99.90;;;;;;4935946;29;20266;-75
2023/02/27 00:59:27;;;;;;;4.53;2.43;;;0.50;99.90;;;;;;4936070;29;20692;-75
2023/02/27 01:01:54;;;;;;;4.47;1.90;;;0.50;99.90;;;;;;4935704;29;20286;-75
2023/02/27 01:04:21;;;;;;;4.00;2.17;;;0.60;99.90;;;;;;4935832;29;20294;-75
2023/02/27 01:06:48;;;;;;;3.37;2.00;;;0.50;99.90;;;;;;4936022;29;20227;-75
2023/02/27 01:09:14;;;;;;;3.50;2.10;;;0.50;99.90;;;;;;4935776;29;20200;-75
2023/02/27 01:11:41;;;;;;;4.03;2.03;;;0.40;99.90;;;;;;4935887;29;20257;-76
2023/02/27 01:14:10;;;;;;;4.60;2.10;;;0.40;99.90;;;;;;4936007;29;20286;-75
2023/02/27 01:16:37;;;;;;;3.37;2.07;;;0.30;99.90;;;;;;4935224;29;20322;-75
2023/02/27 01:19:04;;;;;;;5.57;2.13;;;0.40;99.90;;;;;;4934923;29;20741;-75
2023/02/27 01:21:30;;;;;;;5.20;2.10;;;0.30;99.90;;;;;;4934782;29;20215;-76
2023/02/27 01:23:58;;;;;;;3.63;2.10;;;0.10;99.90;;;;;;4935638;29;20231;-75
2023/02/27 01:26:25;;;;;;;4.37;2.00;;;0.20;99.90;;;;;;4934855;29;20306;-75
2023/02/27 01:28:51;;;;;;;4.33;2.03;;;0.20;99.90;;;;;;4935583;29;20286;-76
2023/02/27 01:31:20;;;;;;;6.30;1.90;;;0.20;99.90;;;;;;4934980;29;20227;-75
2023/02/27 01:33:47;;;;;;;4.33;2.07;;;0.20;99.90;;;;;;4935164;29;20238;-76
2023/02/27 01:36:14;;;;;;;3.53;2.13;;;0.00;99.90;;;;;;4935816;29;20208;-76
2023/02/27 01:38:41;;;;;;;3.70;2.40;;;0.00;99.90;;;;;;4934960;29;20237;-76
2023/02/27 01:41:08;;;;;;;4.87;2.20;;;0.00;99.90;;;;;;4934404;29;20238;-75
2023/02/27 01:43:54;;;;;;;5.63;2.30;;;-0.10;99.90;;;;;;4935208;29;20615;-75
2023/02/27 01:46:23;;;;;;;3.67;2.23;;;0.00;99.90;;;;;;4935054;29;20287;-76
2023/02/27 01:48:53;;;;;;;4.67;2.30;;;-0.20;99.90;;;;;;4934936;29;20226;-75
2023/02/27 01:51:22;;;;;;;4.83;2.03;;;-0.20;99.90;;;;;;4934913;29;20593;-76
2023/02/27 01:53:50;;;;;;;4.23;2.20;;;-0.10;99.90;;;;;;4935270;29;20775;-75
2023/02/27 01:56:20;;;;;;;4.87;2.33;;;-0.10;99.90;;;;;;4934597;29;20608;-75
2023/02/27 01:58:49;;;;;;;5.33;2.10;;;0.00;99.90;;;;;;4934808;29;20378;-76
2023/02/27 02:01:16;;;;;;;3.57;2.10;;;0.00;99.90;;;;;;4934347;29;20290;-75
2023/02/27 02:03:49;;;;;;;4.43;1.97;;;-0.10;99.90;;;;;;4934903;29;20291;-75
2023/02/27 02:06:16;;;;;;;3.73;1.93;;;0.10;99.90;;;;;;4935017;29;20290;-76
2023/02/27 02:08:47;;;;;;;5.90;2.10;;;0.10;99.90;;;;;;4934204;29;20240;-76
2023/02/27 02:11:17;;;;;;;5.27;2.27;;;0.00;99.90;;;;;;4934751;29;20294;-76
2023/02/27 02:13:44;;;;;;;3.63;2.30;;;0.00;99.90;;;;;;4934412;29;20231;-76
2023/02/27 02:16:21;;;;;;;3.20;2.10;;;-0.10;99.90;;;;;;4934067;29;20294;-75
2023/02/27 02:19:26;;;;;;;5.03;2.40;;;-0.10;99.90;;;;;;4934717;29;20300;-75
2023/02/27 02:22:35;;;;;;;3.87;2.00;;;0.10;99.90;;;;;;4934471;29;20294;-74
2023/02/27 02:25:34;;;;;;;3.23;2.10;;;0.00;99.90;;;;;;4934465;29;20297;-76
2023/02/27 02:28:13;;;;;;;4.83;2.50;;;0.10;99.90;;;;;;4933921;29;20239;-75
2023/02/27 02:31:25;;;;;;;4.73;2.10;;;0.00;99.90;;;;;;4933176;29;20641;-75
2023/02/27 02:34:39;;;;;;;5.73;2.20;;;0.00;99.90;;;;;;4894260;29;20260;-75
2023/02/27 02:37:41;;;;;;;7.13;2.10;;;0.00;99.90;;;;;;4857321;29;20311;-75
2023/02/27 02:40:35;;;;;;;4.33;1.90;;;0.10;99.90;;;;;;4857229;29;20298;-75
2023/02/27 02:43:10;;;;;;;5.80;2.00;;;0.00;99.90;;;;;;4857241;29;20229;-75
2023/02/27 02:45:44;;;;;;;4.63;2.20;;;0.10;99.90;;;;;;4857070;29;20269;-76
2023/02/27 02:48:17;;;;;;;5.67;2.03;;;0.00;99.90;;;;;;4856614;29;20296;-75
2023/02/27 02:50:50;;;;;;;3.67;1.90;;;0.00;99.90;;;;;;4856519;29;20300;-75
2023/02/27 02:53:26;;;;;;;4.23;2.00;;;0.00;99.90;;;;;;4856174;29;20240;-76
2023/02/27 02:56:02;;;;;;;5.30;2.20;;;0.00;99.90;;;;;;4856957;29;20424;-75
2023/02/27 02:58:36;;;;;;;6.77;2.07;;;0.00;99.90;;;;;;4856678;29;20335;-75
2023/02/27 03:01:09;;;;;;;4.70;2.43;;;0.20;99.90;;;;;;4855865;29;20959;-75
2023/02/27 03:03:40;;;;;;;4.13;1.87;;;0.00;99.90;;;;;;4858384;29;20212;-76
2023/02/27 03:06:11;;;;;;;3.60;2.27;;;0.10;99.90;;;;;;4875277;29;20300;-75
2023/02/27 03:08:43;;;;;;;5.80;2.33;;;0.10;99.90;;;;;;4874326;29;20288;-75
2023/02/27 03:11:12;;;;;;;5.93;2.10;;;0.10;99.90;;;;;;4875104;29;20292;-76
2023/02/27 03:13:46;;;;;;;4.30;2.10;;;0.10;99.90;;;;;;4911568;29;20230;-75
2023/02/27 03:16:19;;;;;;;8.90;2.10;;;0.10;99.90;;;;;;4934075;29;20296;-75
2023/02/27 03:18:52;;;;;;;3.43;1.80;;;0.20;99.90;;;;;;4933755;29;20270;-76
2023/02/27 03:21:24;;;;;;;4.67;1.80;;;0.10;99.90;;;;;;4934255;29;20199;-75
2023/02/27 03:23:54;;;;;;;5.27;2.03;;;0.20;99.90;;;;;;4933521;29;20295;-75
2023/02/27 03:26:29;;;;;;;5.90;2.53;;;0.10;99.90;;;;;;4933762;29;20290;-75
2023/02/27 03:29:08;;;;;;;5.33;2.00;;;0.20;99.90;;;;;;4936884;29;20297;-75
2023/02/27 03:31:42;;;;;;;4.03;2.00;;;0.10;99.90;;;;;;4937159;29;20680;-76
2023/02/27 03:34:17;;;;;;;4.20;1.57;;;0.20;99.90;;;;;;4937571;29;20841;-74
2023/02/27 03:36:52;;;;;;;5.73;2.10;;;0.20;99.90;;;;;;4937568;29;20842;-74
2023/02/27 03:39:26;;;;;;;5.13;2.03;;;0.30;99.90;;;;;;4937666;29;20214;-73
2023/02/27 03:42:02;;;;;;;5.67;2.00;;;0.30;99.90;;;;;;4954619;29;20324;-76
2023/02/27 03:44:35;;;;;;;4.37;2.10;;;0.20;99.90;;;;;;4956923;29;20202;-77
2023/02/27 03:47:02;;;;;;;3.87;1.80;;;0.20;99.90;;;;;;4956720;29;20254;-74
2023/02/27 03:49:29;;;;;;;3.23;1.90;;;0.20;99.90;;;;;;4956476;29;20293;-74
2023/02/27 03:51:56;;;;;;;5.23;2.10;;;0.20;99.90;;;;;;4956859;29;20289;-74
2023/02/27 03:54:27;;;;;;;4.60;1.80;;;0.10;99.90;;;;;;4956178;29;20242;-74
2023/02/27 03:57:00;;;;;;;5.77;1.90;;;0.10;99.90;;;;;;4951988;29;20237;-74
2023/02/27 03:59:28;;;;;;;5.97;2.00;;;0.10;99.90;;;;;;4934576;29;20295;-74
2023/02/27 04:01:56;;;;;;;4.43;1.93;;;0.20;99.90;;;;;;4936626;29;20291;-74
2023/02/27 04:04:24;;;;;;;4.57;1.73;;;0.20;99.90;;;;;;4948810;29;20233;-75
2023/02/27 04:10:01;;;;;;;5.63;1.87;;;0.30;99.90;;;;;;4955937;29;20683;-74
2023/02/27 04:12:42;;;;;;;4.63;2.00;;;0.40;99.90;;;;;;4945521;29;20238;-74
2023/02/27 04:15:17;;;;;;;4.53;1.90;;;0.30;99.90;;;;;;4937019;29;20306;-74
2023/02/27 04:17:55;;;;;;;4.00;1.70;;;0.50;99.90;;;;;;4937156;29;20257;-75
2023/02/27 04:20:38;;;;;;;2.60;1.60;;;0.50;99.90;;;;;;4936712;29;20223;-76
2023/02/27 04:23:09;;;;;;;4.80;1.93;;;0.40;99.90;;;;;;4937090;29;20744;-77
2023/02/27 04:25:47;;;;;;;4.27;1.87;;;0.50;99.90;;;;;;4936386;29;20254;-74
2023/02/27 04:28:18;;;;;;;4.30;1.83;;;0.40;99.90;;;;;;4936442;29;20258;-74
2023/02/27 04:30:58;;;;;;;3.43;1.90;;;0.30;99.90;;;;;;4935995;29;20294;-74
2023/02/27 04:33:35;;;;;;;5.50;1.90;;;0.30;99.90;;;;;;4936098;29;20295;-74
2023/02/27 04:36:08;;;;;;;3.43;1.83;;;0.40;99.90;;;;;;4936232;29;20199;-74
2023/02/27 04:38:39;;;;;;;4.10;1.90;;;0.30;99.90;;;;;;4936203;29;20259;-75
2023/02/27 04:41:11;;;;;;;3.47;1.87;;;0.20;99.90;;;;;;4936212;29;20311;-74
2023/02/27 04:43:42;;;;;;;2.30;1.77;;;0.20;99.90;;;;;;4917390;29;20208;-74
2023/02/27 04:46:12;;;;;;;3.50;1.80;;;0.20;99.90;;;;;;4916854;29;20784;-76
2023/02/27 04:48:45;;;;;;;3.50;2.00;;;0.10;99.90;;;;;;4917370;29;20693;-76
2023/02/27 04:51:15;;;;;;;4.07;2.00;;;0.00;99.90;;;;;;4917251;29;20737;-74
2023/02/27 04:53:47;;;;;;;4.30;2.07;;;0.00;99.90;;;;;;4917105;29;20299;-74
2023/02/27 04:56:17;;;;;;;3.90;1.80;;;0.00;99.90;;;;;;4917618;29;20286;-75
2023/02/27 04:58:49;;;;;;;4.70;1.87;;;0.00;99.90;;;;;;4916993;29;20334;-77
2023/02/27 05:01:20;;;;;;;3.53;1.87;;;-0.20;99.90;;;;;;4916960;29;20201;-76
2023/02/27 05:03:51;;;;;;;5.33;1.70;;;-0.30;99.90;;;;;;4916753;29;20291;-76
2023/02/27 05:06:23;;;;;;;3.43;1.80;;;-0.20;99.90;;;;;;4916582;29;20299;-77
2023/02/27 05:08:57;;;;;;;2.80;1.97;;;-0.20;99.90;;;;;;4916973;29;20627;-77
2023/02/27 05:11:29;;;;;;;4.50;1.63;;;-0.30;99.90;;;;;;4916032;29;20220;-76
2023/02/27 05:14:02;;;;;;;4.77;1.83;;;-0.20;99.90;;;;;;4916787;29;20228;-74
2023/02/27 05:16:34;;;;;;;5.23;1.70;;;-0.30;99.90;;;;;;4916898;29;20291;-74
2023/02/27 05:19:02;;;;;;;3.27;1.70;;;-0.20;99.90;;;;;;4916462;29;20238;-77
2023/02/27 05:21:32;;;;;;;2.83;1.67;;;-0.20;99.90;;;;;;4916661;29;20254;-76
2023/02/27 05:24:11;;;;;;;3.50;1.83;;;-0.20;99.90;;;;;;4916924;29;20208;-77
2023/02/27 05:27:06;;;;;;;3.23;1.80;;;-0.30;99.90;;;;;;4916954;29;20235;-76
2023/02/27 05:29:42;;;;;;;4.90;1.97;;;-0.30;99.90;;;;;;4912337;29;20425;-77
2023/02/27 05:32:18;;;;;;;3.90;2.00;;;-0.40;99.90;;;;;;4915854;29;20743;-76
2023/02/27 05:34:52;;;;;;;3.77;1.97;;;-0.40;99.90;;;;;;4916518;29;20234;-77
2023/02/27 05:37:22;;;;;;;5.47;1.80;;;-0.40;99.90;;;;;;4915832;29;20294;-76
2023/02/27 05:39:51;;;;;;;2.43;1.60;;;-0.50;99.90;;;;;;4916265;29;20323;-76
2023/02/27 05:42:23;;;;;;;4.23;2.00;;;-0.30;99.90;;;;;;4925842;29;20326;-76
2023/02/27 05:44:56;;;;;;;4.57;2.07;;;-0.30;99.90;;;;;;4935262;29;20235;-76
2023/02/27 05:47:27;;;;;;;3.60;2.03;;;-0.30;99.90;;;;;;4944248;29;20257;-76
2023/02/27 05:49:58;;;;;;;4.17;2.00;;;-0.40;99.90;;;;;;4954006;28;20285;-74
2023/02/27 05:52:27;;;;;;;3.63;1.87;;;-0.30;99.90;;;;;;4953956;29;20285;-75
2023/02/27 05:55:00;;;;;;;3.07;1.83;;;-0.20;99.90;;;;;;4953789;29;20787;-77
2023/02/27 05:57:31;;;;;;;4.17;2.07;;;-0.30;99.90;;;;;;4954418;29;20223;-74
2023/02/27 06:00:04;;;;;;;3.93;2.00;;;-0.40;99.90;;;;;;4953918;29;20312;-74
2023/02/27 06:02:31;;;;;;;3.80;2.10;;;-0.20;99.90;;;;;;4954186;29;20229;-74
2023/02/27 06:04:58;;;;;;;7.43;2.30;;;-0.30;99.90;;;;;;4953803;29;20297;-75
2023/02/27 06:07:25;;;;;;;4.43;2.20;;;-0.20;99.90;;;;;;4953938;29;20233;-74
2023/02/27 06:09:52;;;;;;;47.23;25.03;;;-0.30;99.90;;;;;;4953470;29;20302;-74
2023/02/27 06:12:19;;;;;;;19.17;9.70;;;-0.20;99.90;;;;;;4944597;29;20720;-74
2023/02/27 06:14:46;;;;;;;13.17;9.83;;;-0.30;99.90;;;;;;4934870;29;20203;-74
2023/02/27 06:17:14;;;;;;;10.97;8.27;;;-0.30;99.90;;;;;;4934712;29;20294;-77
2023/02/27 06:19:41;;;;;;;9.33;6.23;;;-0.30;99.90;;;;;;4934571;29;20327;-73
2023/02/27 06:22:09;;;;;;;49.80;29.57;;;-0.20;99.90;;;;;;4934308;29;20297;-76
2023/02/27 06:24:36;;;;;;;24.60;14.97;;;-0.30;99.90;;;;;;4934334;29;20225;-77
2023/02/27 06:27:03;;;;;;;97.73;48.93;;;-0.20;99.90;;;;;;4934223;29;20230;-74
2023/02/27 06:29:30;;;;;;;119.00;59.20;;;-0.20;99.90;;;;;;4933828;29;20290;-73
2023/02/27 06:31:57;;;;;;;133.50;59.50;;;-0.20;99.90;;;;;;4933688;29;20227;-75
2023/02/27 06:34:25;;;;;;;181.83;70.07;;;-0.20;99.90;;;;;;4932966;29;20302;-76
2023/02/27 06:36:52;;;;;;;109.27;54.50;;;-0.20;99.90;;;;;;4933965;29;20648;-75
2023/02/27 06:39:19;;;;;;;26.67;14.80;;;-0.20;99.90;;;;;;4927737;29;20329;-74
2023/02/27 06:41:46;;;;;;;67.53;29.97;;;-0.20;99.90;;;;;;4933578;29;20724;-74
2023/02/27 06:44:12;;;;;;;12.07;8.83;;;-0.30;99.90;;;;;;4932941;29;20278;-74
2023/02/27 06:46:39;;;;;;;7.60;6.63;;;-0.20;99.90;;;;;;4933678;29;20291;-76
2023/02/27 06:49:06;;;;;;;16.87;15.13;;;-0.20;99.90;;;;;;4934035;29;20246;-76
2023/02/27 06:51:35;;;;;;;31.67;28.40;;;-0.20;99.90;;;;;;4934725;29;20252;-79
2023/02/27 06:54:02;;;;;;;16.60;14.00;;;-0.20;99.90;;;;;;4934353;29;20285;-76
2023/02/27 06:56:29;;;;;;;10.43;7.40;;;-0.20;99.90;;;;;;4934363;29;20235;-76
2023/02/27 06:58:56;;;;;;;10.10;8.57;;;-0.20;99.90;;;;;;4934265;29;20259;-77
2023/02/27 07:01:23;;;;;;;9.67;6.97;;;-0.10;99.90;;;;;;4934412;29;20298;-77
2023/02/27 07:03:50;;;;;;;11.43;9.57;;;0.00;99.90;;;;;;4934432;29;20214;-76
2023/02/27 07:06:17;;;;;;;8.20;5.20;;;0.00;99.90;;;;;;4934059;29;20290;-76
2023/02/27 07:08:45;;;;;;;6.87;3.80;;;0.10;99.90;;;;;;4934011;29;20648;-79
2023/02/27 07:11:12;;;;;;;8.87;4.10;;;0.10;99.90;;;;;;4934213;29;20287;-75
2023/02/27 07:13:39;;;;;;;6.43;3.53;;;0.20;99.90;;;;;;4934276;29;20239;-76
2023/02/27 07:16:07;;;;;;;6.30;3.60;;;0.40;99.90;;;;;;4933903;29;20246;-76
2023/02/27 07:18:34;;;;;;;4.17;2.70;;;0.40;99.90;;;;;;4933816;29;20228;-78
2023/02/27 07:21:01;;;;;;;7.07;3.73;;;0.70;99.90;;;;;;4934068;29;20235;-80
2023/02/27 07:23:28;;;;;;;7.80;5.67;;;0.70;99.90;;;;;;4934438;29;20291;-79
2023/02/27 07:25:57;;;;;;;4.50;3.00;;;0.70;99.90;;;;;;4934021;29;20294;-77
2023/02/27 07:28:24;;;;;;;8.10;4.23;;;1.00;99.90;;;;;;4934063;29;20684;-78
2023/02/27 07:30:54;;;;;;;6.50;4.60;;;1.20;99.90;;;;;;4934307;29;20242;-78
2023/02/27 07:33:21;;;;;;;2.77;2.10;;;1.30;99.90;;;;;;4933861;29;20198;-79
2023/02/27 07:35:48;;;;;;;3.70;2.70;;;1.70;99.90;;;;;;4934307;29;20207;-78
2023/02/27 07:38:15;;;;;;;2.93;2.00;;;2.00;99.90;;;;;;4937160;29;20198;-79
2023/02/27 07:40:42;;;;;;;4.53;2.40;;;2.50;99.90;;;;;;4952776;29;20289;-80
2023/02/27 07:43:10;;;;;;;3.00;2.20;;;2.70;99.90;;;;;;4952572;29;20333;-79
2023/02/27 07:45:37;;;;;;;6.40;2.50;;;3.20;99.90;;;;;;4952880;29;20232;-79
2023/02/27 07:48:04;;;;;;;6.10;2.27;;;3.40;99.90;;;;;;4952780;29;20292;-79
2023/02/27 07:50:31;;;;;;;4.03;2.30;;;3.70;99.90;;;;;;4952963;29;20267;-79
2023/02/27 07:52:58;;;;;;;3.20;1.93;;;3.60;99.90;;;;;;4952859;29;20235;-80
2023/02/27 07:55:25;;;;;;;6.90;2.00;;;4.00;99.90;;;;;;4952917;29;20306;-79
2023/02/27 07:57:51;;;;;;;3.47;2.23;;;4.20;99.90;;;;;;4952990;29;20203;-79
2023/02/27 08:00:21;;;;;;;2.50;1.93;;;4.60;99.90;;;;;;4952774;29;20322;-76
2023/02/27 08:02:47;;;;;;;4.57;2.07;;;4.10;99.90;;;;;;4952562;29;20209;-79
2023/02/27 08:05:15;;;;;;;3.20;1.90;;;4.70;99.90;;;;;;4952756;29;20238;-79
2023/02/27 08:07:42;;;;;;;2.87;1.60;;;5.00;99.90;;;;;;4953465;29;20290;-79
2023/02/27 08:10:10;;;;;;;3.97;1.87;;;5.60;99.90;;;;;;4953122;29;20287;-78
2023/02/27 08:12:38;;;;;;;5.80;1.83;;;4.60;99.90;;;;;;4941881;29;20207;-79
2023/02/27 08:15:06;;;;;;;3.77;1.70;;;4.50;99.90;;;;;;4937399;29;20764;-80
2023/02/27 08:17:34;;;;;;;5.07;2.10;;;5.40;99.90;;;;;;4937418;29;20215;-79
2023/02/27 08:20:03;;;;;;;4.07;2.10;;;6.30;99.90;;;;;;4936784;29;20285;-80
2023/02/27 08:22:29;;;;;;;2.47;1.63;;;6.10;99.90;;;;;;4937046;29;20219;-80
2023/02/27 08:24:56;;;;;;;2.77;1.93;;;6.00;99.90;;;;;;4936929;29;20294;-79
2023/02/27 08:27:24;;;;;;;3.57;1.90;;;6.60;99.90;;;;;;4936859;29;20228;-80
2023/02/27 08:29:50;;;;;;;4.27;1.90;;;5.70;99.90;;;;;;4936436;29;20239;-79
2023/02/27 08:32:17;;;;;;;3.20;2.10;;;6.20;99.90;;;;;;4936925;29;20199;-79
2023/02/27 08:34:46;;;;;;;3.77;2.00;;;6.60;99.90;;;;;;4936489;29;20231;-79
2023/02/27 08:37:13;;;;;;;3.77;1.90;;;6.60;99.90;;;;;;4936925;29;20223;-79
2023/02/27 08:39:40;;;;;;;6.20;1.87;;;6.00;99.90;;;;;;4936994;29;20763;-79
2023/02/27 08:42:07;;;;;;;2.97;1.90;;;5.70;99.90;;;;;;4936608;29;20232;-79
2023/02/27 08:44:33;;;;;;;2.13;1.73;;;6.80;99.90;;;;;;4936747;29;20566;-79
2023/02/27 08:47:00;;;;;;;3.03;1.70;;;6.30;99.90;;;;;;4936797;29;20298;-79
2023/02/27 08:49:28;;;;;;;4.03;1.90;;;7.10;99.90;;;;;;4936348;29;20207;-79
2023/02/27 08:51:56;;;;;;;3.13;1.80;;;7.40;99.90;;;;;;4936472;29;20290;-80
2023/02/27 08:54:23;;;;;;;2.53;2.03;;;6.80;99.90;;;;;;4936474;29;20234;-79
2023/02/27 08:56:50;;;;;;;3.77;2.00;;;6.60;99.90;;;;;;4936220;29;20252;-78
2023/02/27 08:59:17;;;;;;;3.40;2.10;;;6.20;99.90;;;;;;4936540;29;20326;-80
2023/02/27 09:01:44;;;;;;;3.33;2.23;;;5.60;99.90;;;;;;4936030;29;20278;-79
2023/02/27 09:04:11;;;;;;;2.67;1.93;;;6.20;99.90;;;;;;4936355;29;20294;-79
2023/02/27 09:06:38;;;;;;;2.37;1.90;;;5.80;99.90;;;;;;4936397;29;20192;-80
2023/02/27 09:09:06;;;;;;;3.10;1.80;;;5.60;99.90;;;;;;4936278;29;20287;-80
2023/02/27 09:11:34;;;;;;;3.70;2.10;;;5.70;99.90;;;;;;4936547;29;20211;-79
2023/02/27 09:14:01;;;;;;;2.77;1.97;;;5.50;99.90;;;;;;4936327;29;20635;-78
2023/02/27 09:16:28;;;;;;;4.00;2.13;;;6.00;99.90;;;;;;4935660;29;20240;-79
2023/02/27 09:18:54;;;;;;;2.77;2.20;;;5.30;99.90;;;;;;4936173;29;20223;-78
2023/02/27 09:21:23;;;;;;;3.77;2.20;;;5.30;99.90;;;;;;4935865;29;20687;-79
2023/02/27 09:23:50;;;;;;;5.67;2.30;;;5.90;99.90;;;;;;4935956;29;20235;-79
2023/02/27 09:26:18;;;;;;;3.60;2.10;;;5.70;99.90;;;;;;4935072;29;20227;-79
2023/02/27 09:28:45;;;;;;;3.27;2.13;;;5.50;99.90;;;;;;4935397;29;20203;-78
2023/02/27 09:31:12;;;;;;;4.33;2.27;;;6.10;99.90;;;;;;4935588;29;20232;-79
2023/02/27 09:33:39;;;;;;;4.43;2.20;;;6.20;99.90;;;;;;4935641;29;20241;-78
2023/02/27 09:36:07;;;;;;;4.23;2.00;;;5.60;99.90;;;;;;4935880;29;20248;-78
2023/02/27 09:38:35;;;;;;;3.83;2.10;;;6.10;99.90;;;;;;4935616;29;20285;-78
2023/02/27 09:41:04;;;;;;;3.13;1.90;;;5.90;99.90;;;;;;4935839;29;20263;-79
2023/02/27 09:43:38;;;;;;;2.60;1.90;;;6.00;99.90;;;;;;4935764;29;20266;-79
2023/02/27 09:46:07;;;;;;;3.17;1.97;;;5.90;99.90;;;;;;4935944;29;20223;-79
2023/02/27 09:48:39;;;;;;;2.50;1.77;;;6.60;99.90;;;;;;4935821;29;20303;-79
2023/02/27 09:51:06;;;;;;;2.27;1.60;;;7.10;99.90;;;;;;4935573;29;20259;-80
2023/02/27 09:53:37;;;;;;;4.13;1.70;;;7.00;99.90;;;;;;4935711;29;20200;-79
2023/02/27 09:56:09;;;;;;;9.60;1.70;;;6.40;99.90;;;;;;4935016;29;20262;-78
2023/02/27 09:58:46;;;;;;;5.43;1.63;;;6.20;99.90;;;;;;4934778;29;20740;-80
2023/02/27 10:01:18;;;;;;;4.20;1.70;;;6.40;99.90;;;;;;4935312;29;20329;-79
2023/02/27 10:04:08;;;;;;;2.33;1.60;;;6.10;99.90;;;;;;4935538;29;20286;-79
2023/02/27 10:06:43;;;;;;;2.93;1.67;;;6.50;99.90;;;;;;4935328;29;20196;-79
2023/02/27 10:09:19;;;;;;;2.47;1.80;;;6.70;99.90;;;;;;4935091;29;20203;-79
2023/02/27 10:11:59;;;;;;;2.63;1.60;;;7.20;99.90;;;;;;4935015;29;20282;-79
2023/02/27 10:14:37;;;;;;;3.10;1.43;;;6.90;99.90;;;;;;4934795;29;20234;-79
2023/02/27 10:17:11;;;;;;;2.53;1.30;;;6.50;99.90;;;;;;4935156;29;20211;-79
2023/02/27 10:19:40;;;;;;;2.23;1.33;;;6.90;99.90;;;;;;4934993;29;20235;-79
2023/02/27 10:22:14;;;;;;;2.77;1.60;;;6.60;99.90;;;;;;4934803;29;20224;-80
2023/02/27 10:24:45;;;;;;;2.80;1.60;;;6.60;99.90;;;;;;4934905;29;20231;-80
2023/02/27 10:27:15;;;;;;;3.07;1.80;;;7.80;99.90;;;;;;4934455;29;20344;-79
2023/02/27 10:29:44;;;;;;;3.43;1.70;;;7.50;99.90;;;;;;4934774;29;20208;-80
2023/02/27 10:32:17;;;;;;;3.90;2.00;;;6.60;99.90;;;;;;4934740;29;20662;-79
2023/02/27 10:34:48;;;;;;;2.70;1.80;;;7.10;99.90;;;;;;4934569;29;20205;-79
2023/02/27 10:37:18;;;;;;;2.40;1.80;;;7.50;99.90;;;;;;4934109;29;20233;-79
2023/02/27 10:39:48;;;;;;;2.77;1.80;;;7.70;99.90;;;;;;4934538;29;20255;-79
2023/02/27 10:42:17;;;;;;;4.30;1.90;;;7.30;99.90;;;;;;4934456;29;20274;-79
2023/02/27 10:44:45;;;;;;;4.57;1.70;;;7.20;99.90;;;;;;4934364;29;20832;-79
2023/02/27 10:47:15;;;;;;;2.77;1.83;;;7.20;99.90;;;;;;4934824;29;20294;-80
2023/02/27 10:49:43;;;;;;;4.87;2.20;;;7.40;99.90;;;;;;4934506;29;20298;-80
2023/02/27 10:52:12;;;;;;;3.40;1.90;;;7.90;99.90;;;;;;4934473;29;20282;-79
2023/02/27 10:54:39;;;;;;;7.30;1.90;;;7.50;99.90;;;;;;4934484;29;20719;-79
2023/02/27 10:57:20;;;;;;;3.27;1.93;;;8.10;99.90;;;;;;4933972;29;20757;-79
2023/02/27 10:59:54;;;;;;;3.43;1.70;;;7.00;99.90;;;;;;4934500;29;20262;-80
2023/02/27 11:02:24;;;;;;;3.03;1.90;;;7.30;99.90;;;;;;4934409;29;20200;-79
2023/02/27 11:04:54;;;;;;;2.40;1.70;;;7.70;99.90;;;;;;4934263;29;20298;-79
2023/02/27 11:07:33;;;;;;;2.60;1.70;;;7.80;99.90;;;;;;4934119;29;20303;-80
2023/02/27 11:10:03;;;;;;;4.07;1.90;;;7.30;99.90;;;;;;4934072;29;20710;-79
2023/02/27 11:12:33;;;;;;;3.07;1.60;;;7.70;99.90;;;;;;4934220;29;20231;-80
2023/02/27 11:15:20;;;;;;;2.90;1.60;;;7.60;99.80;;;;;;4934221;29;20259;-79
2023/02/27 11:17:47;;;;;;;2.47;1.57;;;8.20;99.90;;;;;;4934407;29;20243;-80
2023/02/27 11:20:35;;;;;;;4.03;1.90;;;8.10;98.90;;;;;;4934807;29;20231;-79
2023/02/27 11:23:04;;;;;;;2.73;2.10;;;8.30;98.70;;;;;;4934423;29;20195;-80
2023/02/27 11:25:32;;;;;;;3.40;2.03;;;8.60;98.30;;;;;;4933964;29;20286;-79
2023/02/27 11:28:14;;;;;;;3.80;1.73;;;8.70;99.90;;;;;;4934563;29;20231;-80
2023/02/27 11:30:43;;;;;;;4.30;1.93;;;8.30;98.60;;;;;;4933820;29;20756;-80
2023/02/27 11:33:18;;;;;;;2.50;1.67;;;8.80;97.50;;;;;;4934381;29;20203;-80
2023/02/27 11:35:51;;;;;;;2.53;1.70;;;9.10;95.20;;;;;;4933956;29;20553;-79
2023/02/27 11:38:21;;;;;;;3.10;1.70;;;8.40;95.80;;;;;;4933997;29;20287;-79
2023/02/27 11:40:51;;;;;;;2.47;1.40;;;7.50;95.80;;;;;;4933648;29;20237;-79
2023/02/27 11:43:21;;;;;;;2.90;1.80;;;7.90;95.60;;;;;;4933704;29;20740;-79
2023/02/27 11:45:54;;;;;;;3.43;1.60;;;8.50;95.90;;;;;;4934183;29;20247;-80
2023/02/27 11:48:24;;;;;;;2.27;1.80;;;8.80;93.90;;;;;;4935115;29;20681;-79
2023/02/27 11:51:31;;;;;;;3.23;1.90;;;8.60;95.50;;;;;;4937525;29;20255;-80
2023/02/27 11:54:15;;;;;;;3.27;1.90;;;8.80;96.10;;;;;;4937690;29;20200;-79
2023/02/27 11:56:44;;;;;;;2.57;1.70;;;9.30;97.20;;;;;;4937558;29;20299;-79
2023/02/27 11:59:22;;;;;;;4.20;2.20;;;9.60;96.60;;;;;;4937644;29;20200;-78
2023/02/27 12:01:57;;;;;;;2.53;1.60;;;9.00;94.80;;;;;;4937353;29;20231;-79
2023/02/27 12:04:28;;;;;;;1.70;1.60;;;8.70;92.60;;;;;;4937366;29;20331;-79
2023/02/27 12:07:01;;;;;;;3.80;1.50;;;8.50;93.00;;;;;;4937879;29;20292;-80
2023/02/27 12:09:39;;;;;;;3.90;1.70;;;8.40;92.60;;;;;;4936895;29;20231;-79
2023/02/27 12:12:14;;;;;;;3.10;1.60;;;9.30;95.70;;;;;;4937415;29;20253;-78
2023/02/27 12:14:48;;;;;;;2.30;1.53;;;8.80;93.10;;;;;;4936984;29;20205;-79
2023/02/27 12:17:22;;;;;;;2.63;1.37;;;8.20;91.30;;;;;;4937366;29;20590;-79
2023/02/27 12:20:01;;;;;;;3.00;1.50;;;8.70;92.10;;;;;;4936932;29;20294;-78
2023/02/27 12:22:32;;;;;;;2.43;1.60;;;9.20;91.20;;;;;;4936824;29;20207;-79
2023/02/27 12:25:05;;;;;;;2.87;1.60;;;9.10;93.30;;;;;;4936949;29;20211;-78
2023/02/27 12:27:41;;;;;;;3.57;1.33;;;8.90;91.00;;;;;;4936838;29;20200;-79
2023/02/27 12:30:16;;;;;;;4.00;1.80;;;8.90;87.50;;;;;;4936985;29;20242;-80
2023/02/27 12:32:49;;;;;;;3.20;1.80;;;9.00;90.70;;;;;;4936970;29;20231;-80
2023/02/27 12:35:20;;;;;;;2.80;1.60;;;9.10;91.20;;;;;;4936612;29;20294;-79
2023/02/27 12:37:47;;;;;;;3.47;1.57;;;9.00;90.70;;;;;;4936662;29;20219;-79
2023/02/27 12:40:17;;;;;;;3.93;1.67;;;9.00;91.80;;;;;;4937114;29;20326;-79
2023/02/27 12:43:06;;;;;;;2.67;1.70;;;9.10;93.80;;;;;;4936630;29;20231;-79
2023/02/27 12:45:55;;;;;;;2.77;1.50;;;8.70;89.80;;;;;;4936865;29;20230;-79
2023/02/27 12:48:35;;;;;;;2.17;1.60;;;8.70;93.20;;;;;;4936593;29;20303;-79
2023/02/27 12:51:16;;;;;;;2.40;1.60;;;9.50;86.90;;;;;;4936657;29;20204;-79
2023/02/27 12:54:07;;;;;;;2.00;1.40;;;9.60;92.10;;;;;;4936327;29;20605;-79
2023/02/27 12:56:46;;;;;;;4.40;1.90;;;9.50;90.60;;;;;;4936366;29;20203;-79
2023/02/27 12:59:26;;;;;;;3.00;1.90;;;8.80;95.10;;;;;;4936115;29;20291;-79
2023/02/27 13:01:59;;;;;;;3.00;2.00;;;9.50;92.30;;;;;;4936380;29;20266;-79
2023/02/27 13:04:33;;;;;;;3.13;1.90;;;9.70;89.70;;;;;;4936197;29;20200;-78
2023/02/27 13:07:04;;;;;;;2.93;1.70;;;9.80;92.60;;;;;;4935921;29;20290;-80
2023/02/27 13:09:38;;;;;;;2.47;1.67;;;9.70;93.70;;;;;;4936311;29;20286;-79
2023/02/27 13:12:14;;;;;;;2.40;1.57;;;9.50;94.00;;;;;;4935855;29;20295;-78
2023/02/27 13:14:47;;;;;;;3.50;1.70;;;9.20;93.50;;;;;;4936420;29;20286;-78
2023/02/27 13:17:21;;;;;;;4.43;2.00;;;9.50;92.00;;;;;;4935826;29;20204;-79